sensor_id;sensor_type;location;lat;lon;timestamp;P1;durP1;ratioP1;P2;durP2;ratioP2
13941;SDS011;7043;51.630;7.254;2023-09-08T00:00:43;11.70;;;10.60;;
13941;SDS011;7043;51.630;7.254;2023-09-08T00:03:09;11.60;;;10.48;;
13941;SDS011;7043;51.630;7.254;2023-09-08T00:05:35;11.23;;;10.15;;
13941;SDS011;7043;51.630;7.254;2023-09-08T00:08:01;11.90;;;10.73;;
13941;SDS011;7043;51.630;7.254;2023-09-08T00:10:27;11.65;;;10.55;;
13941;SDS011;7043;51.630;7.254;2023-09-08T00:12:53;11.60;;;10.50;;
13941;SDS011;7043;51.630;7.254;2023-09-08T00:15:19;11.60;;;10.40;;
13941;SDS011;7043;51.630;7.254;2023-09-08T00:17:45;10.45;;;9.45;;
13941;SDS011;7043;51.630;7.254;2023-09-08T00:20:12;11.77;;;10.55;;
13941;SDS011;7043;51.630;7.254;2023-09-08T00:22:38;11.68;;;10.45;;
13941;SDS011;7043;51.630;7.254;2023-09-08T00:25:05;11.13;;;10.02;;
13941;SDS011;7043;51.630;7.254;2023-09-08T00:27:31;13.82;;;11.30;;
13941;SDS011;7043;51.630;7.254;2023-09-08T00:29:57;11.98;;;10.73;;
13941;SDS011;7043;51.630;7.254;2023-09-08T00:32:26;12.55;;;11.25;;
13941;SDS011;7043;51.630;7.254;2023-09-08T00:34:52;12.90;;;11.50;;
13941;SDS011;7043;51.630;7.254;2023-09-08T00:37:18;12.27;;;10.90;;
13941;SDS011;7043;51.630;7.254;2023-09-08T00:39:44;13.77;;;11.60;;
13941;SDS011;7043;51.630;7.254;2023-09-08T00:42:10;12.77;;;11.32;;
13941;SDS011;7043;51.630;7.254;2023-09-08T00:44:36;12.75;;;11.45;;
13941;SDS011;7043;51.630;7.254;2023-09-08T00:47:02;13.65;;;12.25;;
13941;SDS011;7043;51.630;7.254;2023-09-08T00:49:28;13.00;;;11.70;;
13941;SDS011;7043;51.630;7.254;2023-09-08T00:51:54;12.75;;;11.38;;
13941;SDS011;7043;51.630;7.254;2023-09-08T00:54:20;12.85;;;11.65;;
13941;SDS011;7043;51.630;7.254;2023-09-08T00:56:47;13.15;;;11.77;;
13941;SDS011;7043;51.630;7.254;2023-09-08T00:59:14;13.38;;;12.13;;
13941;SDS011;7043;51.630;7.254;2023-09-08T01:01:40;13.30;;;12.10;;
13941;SDS011;7043;51.630;7.254;2023-09-08T01:04:06;14.85;;;12.10;;
13941;SDS011;7043;51.630;7.254;2023-09-08T01:06:32;14.20;;;12.80;;
13941;SDS011;7043;51.630;7.254;2023-09-08T01:08:58;14.55;;;12.77;;
13941;SDS011;7043;51.630;7.254;2023-09-08T01:11:24;14.88;;;12.80;;
13941;SDS011;7043;51.630;7.254;2023-09-08T01:13:51;14.63;;;13.13;;
13941;SDS011;7043;51.630;7.254;2023-09-08T01:16:17;14.40;;;12.90;;
13941;SDS011;7043;51.630;7.254;2023-09-08T01:18:43;15.93;;;13.52;;
13941;SDS011;7043;51.630;7.254;2023-09-08T01:21:17;15.05;;;13.50;;
13941;SDS011;7043;51.630;7.254;2023-09-08T01:26:20;14.60;;;13.20;;
13941;SDS011;7043;51.630;7.254;2023-09-08T01:28:48;15.27;;;13.55;;
13941;SDS011;7043;51.630;7.254;2023-09-08T01:31:16;13.98;;;12.63;;
13941;SDS011;7043;51.630;7.254;2023-09-08T01:33:42;15.18;;;13.68;;
13941;SDS011;7043;51.630;7.254;2023-09-08T01:36:09;15.32;;;13.82;;
13941;SDS011;7043;51.630;7.254;2023-09-08T01:38:35;15.77;;;14.27;;
13941;SDS011;7043;51.630;7.254;2023-09-08T01:41:01;15.60;;;14.07;;
13941;SDS011;7043;51.630;7.254;2023-09-08T01:43:27;16.45;;;14.93;;
13941;SDS011;7043;51.630;7.254;2023-09-08T01:45:53;16.27;;;14.68;;
13941;SDS011;7043;51.630;7.254;2023-09-08T01:48:19;16.60;;;14.88;;
13941;SDS011;7043;51.630;7.254;2023-09-08T01:50:46;15.77;;;14.18;;
13941;SDS011;7043;51.630;7.254;2023-09-08T01:53:12;17.15;;;14.20;;
13941;SDS011;7043;51.630;7.254;2023-09-08T01:55:38;18.55;;;14.88;;
13941;SDS011;7043;51.630;7.254;2023-09-08T01:58:04;16.27;;;14.70;;
13941;SDS011;7043;51.630;7.254;2023-09-08T02:00:30;16.85;;;15.13;;
13941;SDS011;7043;51.630;7.254;2023-09-08T02:02:56;16.35;;;14.60;;
13941;SDS011;7043;51.630;7.254;2023-09-08T02:05:22;16.08;;;14.57;;
13941;SDS011;7043;51.630;7.254;2023-09-08T02:07:50;16.98;;;15.27;;
13941;SDS011;7043;51.630;7.254;2023-09-08T02:10:16;17.05;;;15.25;;
13941;SDS011;7043;51.630;7.254;2023-09-08T02:12:43;16.45;;;14.68;;
13941;SDS011;7043;51.630;7.254;2023-09-08T02:15:09;16.25;;;14.75;;
13941;SDS011;7043;51.630;7.254;2023-09-08T02:17:36;16.83;;;15.23;;
13941;SDS011;7043;51.630;7.254;2023-09-08T02:20:02;16.23;;;14.73;;
13941;SDS011;7043;51.630;7.254;2023-09-08T02:22:28;17.23;;;15.50;;
13941;SDS011;7043;51.630;7.254;2023-09-08T02:24:54;17.08;;;15.40;;
13941;SDS011;7043;51.630;7.254;2023-09-08T02:27:21;16.15;;;14.65;;
13941;SDS011;7043;51.630;7.254;2023-09-08T02:29:47;16.90;;;15.30;;
13941;SDS011;7043;51.630;7.254;2023-09-08T02:32:13;16.60;;;14.93;;
13941;SDS011;7043;51.630;7.254;2023-09-08T02:34:39;16.67;;;15.10;;
13941;SDS011;7043;51.630;7.254;2023-09-08T02:37:07;17.70;;;15.98;;
13941;SDS011;7043;51.630;7.254;2023-09-08T02:39:33;17.88;;;16.17;;
13941;SDS011;7043;51.630;7.254;2023-09-08T02:41:59;17.67;;;15.90;;
13941;SDS011;7043;51.630;7.254;2023-09-08T02:44:25;18.55;;;16.40;;
13941;SDS011;7043;51.630;7.254;2023-09-08T02:46:52;17.80;;;16.10;;
13941;SDS011;7043;51.630;7.254;2023-09-08T02:49:18;19.10;;;17.25;;
13941;SDS011;7043;51.630;7.254;2023-09-08T02:51:44;18.88;;;16.95;;
13941;SDS011;7043;51.630;7.254;2023-09-08T02:54:10;19.13;;;17.33;;
13941;SDS011;7043;51.630;7.254;2023-09-08T02:56:36;19.23;;;17.42;;
13941;SDS011;7043;51.630;7.254;2023-09-08T02:59:02;19.57;;;17.57;;
13941;SDS011;7043;51.630;7.254;2023-09-08T03:01:28;18.45;;;16.75;;
13941;SDS011;7043;51.630;7.254;2023-09-08T03:03:54;19.80;;;17.90;;
13941;SDS011;7043;51.630;7.254;2023-09-08T03:06:20;19.50;;;17.50;;
13941;SDS011;7043;51.630;7.254;2023-09-08T03:08:46;19.48;;;17.42;;
13941;SDS011;7043;51.630;7.254;2023-09-08T03:11:12;19.55;;;17.75;;
13941;SDS011;7043;51.630;7.254;2023-09-08T03:13:38;19.87;;;18.00;;
13941;SDS011;7043;51.630;7.254;2023-09-08T03:16:04;19.33;;;17.48;;
13941;SDS011;7043;51.630;7.254;2023-09-08T03:18:32;20.52;;;18.50;;
13941;SDS011;7043;51.630;7.254;2023-09-08T03:20:58;20.57;;;18.60;;
13941;SDS011;7043;51.630;7.254;2023-09-08T03:23:25;20.58;;;18.67;;
13941;SDS011;7043;51.630;7.254;2023-09-08T03:25:51;20.63;;;18.73;;
13941;SDS011;7043;51.630;7.254;2023-09-08T03:28:17;21.40;;;19.27;;
13941;SDS011;7043;51.630;7.254;2023-09-08T03:30:43;21.23;;;19.07;;
13941;SDS011;7043;51.630;7.254;2023-09-08T03:33:09;21.25;;;19.15;;
13941;SDS011;7043;51.630;7.254;2023-09-08T03:35:35;22.55;;;20.23;;
13941;SDS011;7043;51.630;7.254;2023-09-08T03:38:01;20.07;;;18.07;;
13941;SDS011;7043;51.630;7.254;2023-09-08T03:40:27;21.17;;;19.07;;
13941;SDS011;7043;51.630;7.254;2023-09-08T03:42:53;22.27;;;19.98;;
13941;SDS011;7043;51.630;7.254;2023-09-08T03:45:19;22.20;;;20.00;;
13941;SDS011;7043;51.630;7.254;2023-09-08T03:47:45;21.80;;;19.70;;
13941;SDS011;7043;51.630;7.254;2023-09-08T03:50:11;23.17;;;20.67;;
13941;SDS011;7043;51.630;7.254;2023-09-08T03:52:37;22.57;;;20.27;;
13941;SDS011;7043;51.630;7.254;2023-09-08T03:55:03;21.73;;;19.63;;
13941;SDS011;7043;51.630;7.254;2023-09-08T03:57:29;23.08;;;20.55;;
13941;SDS011;7043;51.630;7.254;2023-09-08T03:59:55;22.83;;;20.40;;
13941;SDS011;7043;51.630;7.254;2023-09-08T04:02:21;21.93;;;19.83;;
13941;SDS011;7043;51.630;7.254;2023-09-08T04:04:47;22.50;;;20.30;;
13941;SDS011;7043;51.630;7.254;2023-09-08T04:07:13;22.98;;;20.77;;
13941;SDS011;7043;51.630;7.254;2023-09-08T04:09:39;23.60;;;21.17;;
13941;SDS011;7043;51.630;7.254;2023-09-08T04:12:05;23.70;;;21.37;;
13941;SDS011;7043;51.630;7.254;2023-09-08T04:14:34;21.85;;;19.67;;
13941;SDS011;7043;51.630;7.254;2023-09-08T04:17:01;21.50;;;19.13;;
13941;SDS011;7043;51.630;7.254;2023-09-08T04:19:27;23.13;;;20.35;;
13941;SDS011;7043;51.630;7.254;2023-09-08T04:21:53;22.83;;;20.45;;
13941;SDS011;7043;51.630;7.254;2023-09-08T04:24:19;22.08;;;19.90;;
13941;SDS011;7043;51.630;7.254;2023-09-08T04:26:45;23.10;;;20.63;;
13941;SDS011;7043;51.630;7.254;2023-09-08T04:29:11;21.17;;;19.08;;
13941;SDS011;7043;51.630;7.254;2023-09-08T04:31:37;22.23;;;20.13;;
13941;SDS011;7043;51.630;7.254;2023-09-08T04:34:03;21.77;;;19.67;;
13941;SDS011;7043;51.630;7.254;2023-09-08T04:36:29;20.75;;;18.92;;
13941;SDS011;7043;51.630;7.254;2023-09-08T04:38:55;21.83;;;19.60;;
13941;SDS011;7043;51.630;7.254;2023-09-08T04:41:21;22.17;;;19.93;;
13941;SDS011;7043;51.630;7.254;2023-09-08T04:43:47;22.57;;;20.33;;
13941;SDS011;7043;51.630;7.254;2023-09-08T04:46:13;22.35;;;19.92;;
13941;SDS011;7043;51.630;7.254;2023-09-08T04:48:39;21.73;;;19.63;;
13941;SDS011;7043;51.630;7.254;2023-09-08T04:51:07;21.73;;;19.73;;
13941;SDS011;7043;51.630;7.254;2023-09-08T04:53:33;21.63;;;19.57;;
13941;SDS011;7043;51.630;7.254;2023-09-08T04:56:01;21.30;;;19.27;;
13941;SDS011;7043;51.630;7.254;2023-09-08T04:58:27;22.57;;;19.73;;
13941;SDS011;7043;51.630;7.254;2023-09-08T05:00:53;22.42;;;20.23;;
13941;SDS011;7043;51.630;7.254;2023-09-08T05:03:20;22.25;;;20.05;;
13941;SDS011;7043;51.630;7.254;2023-09-08T05:05:46;20.70;;;18.80;;
13941;SDS011;7043;51.630;7.254;2023-09-08T05:08:12;21.87;;;19.67;;
13941;SDS011;7043;51.630;7.254;2023-09-08T05:10:38;21.37;;;19.37;;
13941;SDS011;7043;51.630;7.254;2023-09-08T05:13:04;24.92;;;19.42;;
13941;SDS011;7043;51.630;7.254;2023-09-08T05:15:29;22.58;;;20.38;;
13941;SDS011;7043;51.630;7.254;2023-09-08T05:17:56;22.43;;;20.13;;
13941;SDS011;7043;51.630;7.254;2023-09-08T05:20:22;21.05;;;18.83;;
13941;SDS011;7043;51.630;7.254;2023-09-08T05:22:48;20.43;;;18.43;;
13941;SDS011;7043;51.630;7.254;2023-09-08T05:25:14;19.80;;;17.85;;
13941;SDS011;7043;51.630;7.254;2023-09-08T05:27:40;18.70;;;16.95;;
13941;SDS011;7043;51.630;7.254;2023-09-08T05:30:06;19.08;;;17.25;;
13941;SDS011;7043;51.630;7.254;2023-09-08T05:32:32;18.55;;;16.77;;
13941;SDS011;7043;51.630;7.254;2023-09-08T05:34:58;17.02;;;15.27;;
13941;SDS011;7043;51.630;7.254;2023-09-08T05:37:24;17.50;;;15.60;;
13941;SDS011;7043;51.630;7.254;2023-09-08T05:39:50;16.65;;;14.88;;
13941;SDS011;7043;51.630;7.254;2023-09-08T05:42:16;17.33;;;15.52;;
13941;SDS011;7043;51.630;7.254;2023-09-08T05:44:42;16.77;;;15.13;;
13941;SDS011;7043;51.630;7.254;2023-09-08T05:47:08;16.35;;;14.82;;
13941;SDS011;7043;51.630;7.254;2023-09-08T05:49:34;17.58;;;15.73;;
13941;SDS011;7043;51.630;7.254;2023-09-08T05:52:00;17.25;;;15.52;;
13941;SDS011;7043;51.630;7.254;2023-09-08T05:54:26;16.92;;;15.23;;
13941;SDS011;7043;51.630;7.254;2023-09-08T05:56:54;17.80;;;14.90;;
13941;SDS011;7043;51.630;7.254;2023-09-08T05:59:19;16.13;;;14.43;;
13941;SDS011;7043;51.630;7.254;2023-09-08T06:01:45;15.60;;;14.00;;
13941;SDS011;7043;51.630;7.254;2023-09-08T06:04:11;15.55;;;13.93;;
13941;SDS011;7043;51.630;7.254;2023-09-08T06:06:37;15.88;;;14.10;;
13941;SDS011;7043;51.630;7.254;2023-09-08T06:09:04;14.93;;;13.38;;
13941;SDS011;7043;51.630;7.254;2023-09-08T06:11:32;14.93;;;13.23;;
13941;SDS011;7043;51.630;7.254;2023-09-08T06:13:59;14.13;;;12.55;;
13941;SDS011;7043;51.630;7.254;2023-09-08T06:16:25;14.90;;;13.45;;
13941;SDS011;7043;51.630;7.254;2023-09-08T06:18:51;15.65;;;12.80;;
13941;SDS011;7043;51.630;7.254;2023-09-08T06:21:17;15.25;;;12.73;;
13941;SDS011;7043;51.630;7.254;2023-09-08T06:23:43;16.33;;;12.45;;
13941;SDS011;7043;51.630;7.254;2023-09-08T06:26:09;14.63;;;12.48;;
13941;SDS011;7043;51.630;7.254;2023-09-08T06:28:35;15.13;;;12.45;;
13941;SDS011;7043;51.630;7.254;2023-09-08T06:31:01;16.10;;;11.93;;
13941;SDS011;7043;51.630;7.254;2023-09-08T06:33:27;14.52;;;12.75;;
13941;SDS011;7043;51.630;7.254;2023-09-08T06:35:53;13.98;;;12.25;;
13941;SDS011;7043;51.630;7.254;2023-09-08T06:38:19;14.05;;;12.60;;
13941;SDS011;7043;51.630;7.254;2023-09-08T06:40:45;12.95;;;11.65;;
13941;SDS011;7043;51.630;7.254;2023-09-08T06:43:11;13.35;;;11.75;;
13941;SDS011;7043;51.630;7.254;2023-09-08T06:45:37;12.95;;;11.45;;
13941;SDS011;7043;51.630;7.254;2023-09-08T06:48:05;13.48;;;12.25;;
13941;SDS011;7043;51.630;7.254;2023-09-08T06:50:31;15.63;;;12.23;;
13941;SDS011;7043;51.630;7.254;2023-09-08T06:52:57;13.77;;;12.45;;
13941;SDS011;7043;51.630;7.254;2023-09-08T06:55:23;12.93;;;11.73;;
13941;SDS011;7043;51.630;7.254;2023-09-08T06:57:49;12.90;;;11.60;;
13941;SDS011;7043;51.630;7.254;2023-09-08T07:00:15;13.18;;;11.68;;
13941;SDS011;7043;51.630;7.254;2023-09-08T07:02:42;12.57;;;11.27;;
13941;SDS011;7043;51.630;7.254;2023-09-08T07:05:08;13.18;;;11.02;;
13941;SDS011;7043;51.630;7.254;2023-09-08T07:07:34;12.82;;;11.10;;
13941;SDS011;7043;51.630;7.254;2023-09-08T07:10:01;12.48;;;10.82;;
13941;SDS011;7043;51.630;7.254;2023-09-08T07:12:27;13.35;;;10.20;;
13941;SDS011;7043;51.630;7.254;2023-09-08T07:14:53;11.63;;;9.68;;
13941;SDS011;7043;51.630;7.254;2023-09-08T07:17:19;10.50;;;9.50;;
13941;SDS011;7043;51.630;7.254;2023-09-08T07:19:45;11.02;;;9.50;;
13941;SDS011;7043;51.630;7.254;2023-09-08T07:22:11;12.18;;;9.55;;
13941;SDS011;7043;51.630;7.254;2023-09-08T07:24:37;10.25;;;9.35;;
13941;SDS011;7043;51.630;7.254;2023-09-08T07:27:03;9.63;;;8.15;;
13941;SDS011;7043;51.630;7.254;2023-09-08T07:29:29;9.45;;;7.85;;
13941;SDS011;7043;51.630;7.254;2023-09-08T07:31:55;9.60;;;7.82;;
13941;SDS011;7043;51.630;7.254;2023-09-08T07:34:21;10.68;;;7.40;;
13941;SDS011;7043;51.630;7.254;2023-09-08T07:36:47;8.77;;;7.38;;
13941;SDS011;7043;51.630;7.254;2023-09-08T07:39:13;10.32;;;7.60;;
13941;SDS011;7043;51.630;7.254;2023-09-08T07:41:39;8.27;;;7.38;;
13941;SDS011;7043;51.630;7.254;2023-09-08T07:44:05;11.55;;;7.65;;
13941;SDS011;7043;51.630;7.254;2023-09-08T07:46:32;10.15;;;7.35;;
13941;SDS011;7043;51.630;7.254;2023-09-08T07:48:58;10.07;;;7.38;;
13941;SDS011;7043;51.630;7.254;2023-09-08T07:51:24;8.43;;;7.07;;
13941;SDS011;7043;51.630;7.254;2023-09-08T07:53:51;7.32;;;6.63;;
13941;SDS011;7043;51.630;7.254;2023-09-08T07:56:17;9.30;;;7.40;;
13941;SDS011;7043;51.630;7.254;2023-09-08T07:58:43;8.30;;;6.75;;
13941;SDS011;7043;51.630;7.254;2023-09-08T08:01:09;7.25;;;6.47;;
13941;SDS011;7043;51.630;7.254;2023-09-08T08:03:35;7.10;;;6.38;;
13941;SDS011;7043;51.630;7.254;2023-09-08T08:06:02;6.85;;;6.07;;
13941;SDS011;7043;51.630;7.254;2023-09-08T08:08:28;7.60;;;5.65;;
13941;SDS011;7043;51.630;7.254;2023-09-08T08:10:55;6.60;;;5.90;;
13941;SDS011;7043;51.630;7.254;2023-09-08T08:13:21;7.72;;;6.35;;
13941;SDS011;7043;51.630;7.254;2023-09-08T08:15:47;8.18;;;6.78;;
13941;SDS011;7043;51.630;7.254;2023-09-08T08:18:13;8.00;;;6.30;;
13941;SDS011;7043;51.630;7.254;2023-09-08T08:20:39;8.05;;;6.15;;
13941;SDS011;7043;51.630;7.254;2023-09-08T08:23:05;7.40;;;6.28;;
13941;SDS011;7043;51.630;7.254;2023-09-08T08:25:32;7.80;;;6.55;;
13941;SDS011;7043;51.630;7.254;2023-09-08T08:27:58;7.75;;;6.00;;
13941;SDS011;7043;51.630;7.254;2023-09-08T08:30:25;6.40;;;5.60;;
13941;SDS011;7043;51.630;7.254;2023-09-08T08:32:51;7.38;;;6.07;;
13941;SDS011;7043;51.630;7.254;2023-09-08T08:35:18;7.97;;;6.63;;
13941;SDS011;7043;51.630;7.254;2023-09-08T08:37:44;7.65;;;6.13;;
13941;SDS011;7043;51.630;7.254;2023-09-08T08:40:11;6.35;;;5.72;;
13941;SDS011;7043;51.630;7.254;2023-09-08T08:42:40;6.70;;;5.97;;
13941;SDS011;7043;51.630;7.254;2023-09-08T08:45:07;7.35;;;5.97;;
13941;SDS011;7043;51.630;7.254;2023-09-08T08:47:33;8.07;;;6.10;;
13941;SDS011;7043;51.630;7.254;2023-09-08T08:49:59;6.95;;;6.25;;
13941;SDS011;7043;51.630;7.254;2023-09-08T08:52:26;8.95;;;6.03;;
13941;SDS011;7043;51.630;7.254;2023-09-08T08:54:52;7.55;;;5.88;;
13941;SDS011;7043;51.630;7.254;2023-09-08T08:57:18;7.53;;;5.90;;
13941;SDS011;7043;51.630;7.254;2023-09-08T08:59:45;9.05;;;5.85;;
13941;SDS011;7043;51.630;7.254;2023-09-08T09:02:11;8.20;;;5.50;;
13941;SDS011;7043;51.630;7.254;2023-09-08T09:04:39;8.57;;;6.53;;
13941;SDS011;7043;51.630;7.254;2023-09-08T09:07:05;9.32;;;6.15;;
13941;SDS011;7043;51.630;7.254;2023-09-08T09:09:32;8.48;;;5.65;;
13941;SDS011;7043;51.630;7.254;2023-09-08T09:11:58;9.32;;;6.30;;
13941;SDS011;7043;51.630;7.254;2023-09-08T09:14:24;8.10;;;6.32;;
13941;SDS011;7043;51.630;7.254;2023-09-08T09:16:50;7.38;;;6.05;;
13941;SDS011;7043;51.630;7.254;2023-09-08T09:19:20;6.00;;;5.40;;
13941;SDS011;7043;51.630;7.254;2023-09-08T09:21:50;8.25;;;6.22;;
13941;SDS011;7043;51.630;7.254;2023-09-08T09:24:29;7.78;;;5.95;;
13941;SDS011;7043;51.630;7.254;2023-09-08T09:26:56;6.32;;;5.72;;
13941;SDS011;7043;51.630;7.254;2023-09-08T09:29:22;6.28;;;5.35;;
13941;SDS011;7043;51.630;7.254;2023-09-08T09:31:55;7.43;;;5.60;;
13941;SDS011;7043;51.630;7.254;2023-09-08T09:34:22;8.52;;;5.53;;
13941;SDS011;7043;51.630;7.254;2023-09-08T09:36:49;6.57;;;5.57;;
13941;SDS011;7043;51.630;7.254;2023-09-08T09:39:16;7.03;;;5.75;;
13941;SDS011;7043;51.630;7.254;2023-09-08T09:41:42;5.85;;;5.00;;
13941;SDS011;7043;51.630;7.254;2023-09-08T09:44:09;7.22;;;5.28;;
13941;SDS011;7043;51.630;7.254;2023-09-08T09:46:35;6.80;;;5.13;;
13941;SDS011;7043;51.630;7.254;2023-09-08T09:49:01;8.45;;;5.72;;
13941;SDS011;7043;51.630;7.254;2023-09-08T09:51:27;8.10;;;6.65;;
13941;SDS011;7043;51.630;7.254;2023-09-08T09:53:54;7.05;;;5.88;;
13941;SDS011;7043;51.630;7.254;2023-09-08T09:56:22;7.22;;;5.90;;
13941;SDS011;7043;51.630;7.254;2023-09-08T09:58:48;6.10;;;5.50;;
13941;SDS011;7043;51.630;7.254;2023-09-08T10:01:15;7.07;;;6.18;;
13941;SDS011;7043;51.630;7.254;2023-09-08T10:03:41;5.88;;;5.28;;
13941;SDS011;7043;51.630;7.254;2023-09-08T10:06:08;6.35;;;5.35;;
13941;SDS011;7043;51.630;7.254;2023-09-08T10:08:34;6.47;;;5.40;;
13941;SDS011;7043;51.630;7.254;2023-09-08T10:11:06;5.78;;;5.15;;
13941;SDS011;7043;51.630;7.254;2023-09-08T10:13:33;6.50;;;5.38;;
13941;SDS011;7043;51.630;7.254;2023-09-08T10:16:02;6.88;;;5.05;;
13941;SDS011;7043;51.630;7.254;2023-09-08T10:18:29;5.75;;;5.00;;
13941;SDS011;7043;51.630;7.254;2023-09-08T10:20:57;7.38;;;5.40;;
13941;SDS011;7043;51.630;7.254;2023-09-08T10:23:34;5.38;;;4.65;;
13941;SDS011;7043;51.630;7.254;2023-09-08T10:26:02;6.93;;;5.20;;
13941;SDS011;7043;51.630;7.254;2023-09-08T10:28:33;5.35;;;4.85;;
13941;SDS011;7043;51.630;7.254;2023-09-08T10:30:59;7.43;;;5.22;;
13941;SDS011;7043;51.630;7.254;2023-09-08T10:33:25;5.35;;;4.85;;
13941;SDS011;7043;51.630;7.254;2023-09-08T10:35:52;6.43;;;5.53;;
13941;SDS011;7043;51.630;7.254;2023-09-08T10:40:51;6.38;;;4.95;;
13941;SDS011;7043;51.630;7.254;2023-09-08T10:43:18;6.40;;;4.82;;
13941;SDS011;7043;51.630;7.254;2023-09-08T10:45:45;5.40;;;4.90;;
13941;SDS011;7043;51.630;7.254;2023-09-08T10:48:11;5.40;;;4.90;;
13941;SDS011;7043;51.630;7.254;2023-09-08T10:50:39;8.90;;;5.30;;
13941;SDS011;7043;51.630;7.254;2023-09-08T10:58:31;6.43;;;5.20;;
13941;SDS011;7043;51.630;7.254;2023-09-08T11:00:59;5.05;;;4.65;;
13941;SDS011;7043;51.630;7.254;2023-09-08T11:06:04;5.75;;;5.15;;
13941;SDS011;7043;51.630;7.254;2023-09-08T11:08:32;5.45;;;4.90;;
13941;SDS011;7043;51.630;7.254;2023-09-08T11:10:58;5.88;;;5.20;;
13941;SDS011;7043;51.630;7.254;2023-09-08T11:13:25;5.57;;;5.05;;
13941;SDS011;7043;51.630;7.254;2023-09-08T11:15:51;6.20;;;5.00;;
13941;SDS011;7043;51.630;7.254;2023-09-08T11:18:25;5.63;;;4.88;;
13941;SDS011;7043;51.630;7.254;2023-09-08T11:20:51;5.68;;;5.18;;
13941;SDS011;7043;51.630;7.254;2023-09-08T11:23:17;5.13;;;4.72;;
13941;SDS011;7043;51.630;7.254;2023-09-08T11:25:43;5.35;;;4.85;;
13941;SDS011;7043;51.630;7.254;2023-09-08T11:28:09;5.68;;;5.18;;
13941;SDS011;7043;51.630;7.254;2023-09-08T11:30:36;7.40;;;5.35;;
13941;SDS011;7043;51.630;7.254;2023-09-08T11:33:02;5.47;;;4.97;;
13941;SDS011;7043;51.630;7.254;2023-09-08T11:35:28;5.70;;;5.20;;
13941;SDS011;7043;51.630;7.254;2023-09-08T11:37:58;6.90;;;5.20;;
13941;SDS011;7043;51.630;7.254;2023-09-08T11:40:25;5.53;;;4.90;;
13941;SDS011;7043;51.630;7.254;2023-09-08T11:42:51;5.75;;;5.07;;
13941;SDS011;7043;51.630;7.254;2023-09-08T11:45:19;6.93;;;6.32;;
13941;SDS011;7043;51.630;7.254;2023-09-08T11:47:48;6.15;;;5.35;;
13941;SDS011;7043;51.630;7.254;2023-09-08T11:50:14;5.05;;;4.65;;
13941;SDS011;7043;51.630;7.254;2023-09-08T11:52:45;5.32;;;4.82;;
13941;SDS011;7043;51.630;7.254;2023-09-08T11:55:12;7.40;;;4.82;;
13941;SDS011;7043;51.630;7.254;2023-09-08T11:57:38;5.90;;;5.30;;
13941;SDS011;7043;51.630;7.254;2023-09-08T12:00:05;5.35;;;4.85;;
13941;SDS011;7043;51.630;7.254;2023-09-08T12:02:37;5.50;;;5.07;;
13941;SDS011;7043;51.630;7.254;2023-09-08T12:05:03;5.97;;;5.45;;
13941;SDS011;7043;51.630;7.254;2023-09-08T12:07:29;5.20;;;4.70;;
13941;SDS011;7043;51.630;7.254;2023-09-08T12:09:56;5.95;;;5.07;;
13941;SDS011;7043;51.630;7.254;2023-09-08T12:12:25;5.13;;;4.63;;
13941;SDS011;7043;51.630;7.254;2023-09-08T12:14:51;5.45;;;4.80;;
13941;SDS011;7043;51.630;7.254;2023-09-08T12:17:17;6.13;;;5.63;;
13941;SDS011;7043;51.630;7.254;2023-09-08T12:19:45;6.22;;;5.63;;
13941;SDS011;7043;51.630;7.254;2023-09-08T12:22:10;5.90;;;5.40;;
13941;SDS011;7043;51.630;7.254;2023-09-08T12:27:16;6.78;;;5.30;;
13941;SDS011;7043;51.630;7.254;2023-09-08T12:29:51;6.47;;;5.10;;
13941;SDS011;7043;51.630;7.254;2023-09-08T12:32:17;5.65;;;5.10;;
13941;SDS011;7043;51.630;7.254;2023-09-08T12:34:43;6.20;;;5.68;;
13941;SDS011;7043;51.630;7.254;2023-09-08T12:37:09;5.07;;;4.68;;
13941;SDS011;7043;51.630;7.254;2023-09-08T12:39:37;5.70;;;4.90;;
13941;SDS011;7043;51.630;7.254;2023-09-08T12:42:03;5.30;;;4.80;;
13941;SDS011;7043;51.630;7.254;2023-09-08T12:44:30;5.30;;;4.82;;
13941;SDS011;7043;51.630;7.254;2023-09-08T12:46:55;5.60;;;5.10;;
13941;SDS011;7043;51.630;7.254;2023-09-08T12:49:21;5.00;;;4.60;;
13941;SDS011;7043;51.630;7.254;2023-09-08T12:51:47;5.57;;;5.18;;
13941;SDS011;7043;51.630;7.254;2023-09-08T12:54:13;5.43;;;5.00;;
13941;SDS011;7043;51.630;7.254;2023-09-08T12:56:39;5.00;;;4.60;;
13941;SDS011;7043;51.630;7.254;2023-09-08T12:59:05;5.88;;;4.95;;
13941;SDS011;7043;51.630;7.254;2023-09-08T13:01:31;5.05;;;4.55;;
13941;SDS011;7043;51.630;7.254;2023-09-08T13:03:57;6.88;;;4.85;;
13941;SDS011;7043;51.630;7.254;2023-09-08T13:06:23;5.35;;;4.82;;
13941;SDS011;7043;51.630;7.254;2023-09-08T13:08:49;6.03;;;4.82;;
13941;SDS011;7043;51.630;7.254;2023-09-08T13:11:15;5.20;;;4.80;;
13941;SDS011;7043;51.630;7.254;2023-09-08T13:13:41;5.53;;;4.78;;
13941;SDS011;7043;51.630;7.254;2023-09-08T13:16:07;5.43;;;4.93;;
13941;SDS011;7043;51.630;7.254;2023-09-08T13:18:33;5.60;;;5.15;;
13941;SDS011;7043;51.630;7.254;2023-09-08T13:21:03;5.13;;;4.72;;
13941;SDS011;7043;51.630;7.254;2023-09-08T13:23:29;5.97;;;4.75;;
13941;SDS011;7043;51.630;7.254;2023-09-08T13:25:55;5.45;;;4.63;;
13941;SDS011;7043;51.630;7.254;2023-09-08T13:28:21;5.95;;;5.35;;
13941;SDS011;7043;51.630;7.254;2023-09-08T13:30:47;5.43;;;4.93;;
13941;SDS011;7043;51.630;7.254;2023-09-08T13:33:13;6.03;;;5.53;;
13941;SDS011;7043;51.630;7.254;2023-09-08T13:35:39;7.55;;;5.50;;
13941;SDS011;7043;51.630;7.254;2023-09-08T13:38:05;5.97;;;5.28;;
13941;SDS011;7043;51.630;7.254;2023-09-08T13:40:31;5.53;;;5.03;;
13941;SDS011;7043;51.630;7.254;2023-09-08T13:42:57;6.13;;;4.50;;
13941;SDS011;7043;51.630;7.254;2023-09-08T13:45:24;9.32;;;5.53;;
13941;SDS011;7043;51.630;7.254;2023-09-08T13:47:50;5.30;;;4.80;;
13941;SDS011;7043;51.630;7.254;2023-09-08T13:50:16;5.57;;;5.10;;
13941;SDS011;7043;51.630;7.254;2023-09-08T13:52:42;5.65;;;5.15;;
13941;SDS011;7043;51.630;7.254;2023-09-08T13:55:08;5.53;;;4.50;;
13941;SDS011;7043;51.630;7.254;2023-09-08T13:57:35;7.43;;;5.25;;
13941;SDS011;7043;51.630;7.254;2023-09-08T14:00:01;5.05;;;4.60;;
13941;SDS011;7043;51.630;7.254;2023-09-08T14:02:28;5.13;;;4.57;;
13941;SDS011;7043;51.630;7.254;2023-09-08T14:04:54;5.40;;;4.90;;
13941;SDS011;7043;51.630;7.254;2023-09-08T14:07:20;4.95;;;4.50;;
13941;SDS011;7043;51.630;7.254;2023-09-08T14:09:46;5.13;;;4.68;;
13941;SDS011;7043;51.630;7.254;2023-09-08T14:12:12;4.95;;;4.55;;
13941;SDS011;7043;51.630;7.254;2023-09-08T14:14:38;5.35;;;4.85;;
13941;SDS011;7043;51.630;7.254;2023-09-08T14:17:04;5.05;;;4.43;;
13941;SDS011;7043;51.630;7.254;2023-09-08T14:19:30;5.40;;;4.90;;
13941;SDS011;7043;51.630;7.254;2023-09-08T14:21:56;5.97;;;4.88;;
13941;SDS011;7043;51.630;7.254;2023-09-08T14:24:22;4.85;;;4.45;;
13941;SDS011;7043;51.630;7.254;2023-09-08T14:26:49;4.75;;;4.35;;
13941;SDS011;7043;51.630;7.254;2023-09-08T14:29:16;5.00;;;4.60;;
13941;SDS011;7043;51.630;7.254;2023-09-08T14:31:42;4.90;;;4.50;;
13941;SDS011;7043;51.630;7.254;2023-09-08T14:34:08;4.80;;;4.40;;
13941;SDS011;7043;51.630;7.254;2023-09-08T14:36:34;5.38;;;4.80;;
13941;SDS011;7043;51.630;7.254;2023-09-08T14:39:00;5.03;;;4.63;;
13941;SDS011;7043;51.630;7.254;2023-09-08T14:41:26;5.30;;;4.80;;
13941;SDS011;7043;51.630;7.254;2023-09-08T14:43:52;5.00;;;4.60;;
13941;SDS011;7043;51.630;7.254;2023-09-08T14:46:18;5.43;;;4.68;;
13941;SDS011;7043;51.630;7.254;2023-09-08T14:48:44;6.10;;;4.75;;
13941;SDS011;7043;51.630;7.254;2023-09-08T14:51:10;5.85;;;5.20;;
13941;SDS011;7043;51.630;7.254;2023-09-08T14:53:36;5.78;;;5.18;;
13941;SDS011;7043;51.630;7.254;2023-09-08T14:56:02;5.18;;;4.57;;
13941;SDS011;7043;51.630;7.254;2023-09-08T14:58:29;5.38;;;4.88;;